sensor_id;sensor_type;location;lat;lon;timestamp;temperature;humidity
21895;DHT22;11112;51.270;7.224;2022-11-04T00:02:09;13.50;97.60
21895;DHT22;11112;51.270;7.224;2022-11-04T00:04:36;13.40;97.30
21895;DHT22;11112;51.270;7.224;2022-11-04T00:07:04;13.50;97.20
21895;DHT22;11112;51.270;7.224;2022-11-04T00:09:51;13.40;97.20
21895;DHT22;11112;51.270;7.224;2022-11-04T00:12:18;13.40;97.10
21895;DHT22;11112;51.270;7.224;2022-11-04T00:14:50;13.40;97.00
21895;DHT22;11112;51.270;7.224;2022-11-04T00:17:17;13.40;97.10
21895;DHT22;11112;51.270;7.224;2022-11-04T00:19:44;13.40;96.80
21895;DHT22;11112;51.270;7.224;2022-11-04T00:22:30;13.40;96.80
21895;DHT22;11112;51.270;7.224;2022-11-04T00:25:15;13.40;96.60
21895;DHT22;11112;51.270;7.224;2022-11-04T00:28:09;13.40;96.40
21895;DHT22;11112;51.270;7.224;2022-11-04T00:30:55;13.40;96.50
21895;DHT22;11112;51.270;7.224;2022-11-04T00:33:43;13.30;96.30
21895;DHT22;11112;51.270;7.224;2022-11-04T00:36:09;13.30;96.40
21895;DHT22;11112;51.270;7.224;2022-11-04T00:38:38;13.30;96.30
21895;DHT22;11112;51.270;7.224;2022-11-04T00:41:05;13.30;96.30
21895;DHT22;11112;51.270;7.224;2022-11-04T00:43:50;13.20;96.30
21895;DHT22;11112;51.270;7.224;2022-11-04T00:46:18;13.30;96.40
21895;DHT22;11112;51.270;7.224;2022-11-04T00:48:45;13.20;96.40
21895;DHT22;11112;51.270;7.224;2022-11-04T00:51:13;13.20;96.40
21895;DHT22;11112;51.270;7.224;2022-11-04T00:53:41;13.30;96.40
21895;DHT22;11112;51.270;7.224;2022-11-04T00:56:08;13.30;96.50
21895;DHT22;11112;51.270;7.224;2022-11-04T00:58:36;13.20;96.40
21895;DHT22;11112;51.270;7.224;2022-11-04T01:01:06;13.20;96.40
21895;DHT22;11112;51.270;7.224;2022-11-04T01:03:34;13.20;96.40
21895;DHT22;11112;51.270;7.224;2022-11-04T01:06:02;13.20;96.80
21895;DHT22;11112;51.270;7.224;2022-11-04T01:08:30;13.20;96.70
21895;DHT22;11112;51.270;7.224;2022-11-04T01:11:01;13.20;96.90
21895;DHT22;11112;51.270;7.224;2022-11-04T01:13:29;13.20;96.90
21895;DHT22;11112;51.270;7.224;2022-11-04T01:15:57;13.20;96.70
21895;DHT22;11112;51.270;7.224;2022-11-04T01:18:24;13.20;96.80
21895;DHT22;11112;51.270;7.224;2022-11-04T01:20:51;13.20;96.80
21895;DHT22;11112;51.270;7.224;2022-11-04T01:23:19;13.20;96.80
21895;DHT22;11112;51.270;7.224;2022-11-04T01:25:46;13.20;96.80
21895;DHT22;11112;51.270;7.224;2022-11-04T01:28:14;13.20;96.80
21895;DHT22;11112;51.270;7.224;2022-11-04T01:30:41;13.20;96.90
21895;DHT22;11112;51.270;7.224;2022-11-04T01:33:09;13.20;96.80
21895;DHT22;11112;51.270;7.224;2022-11-04T01:35:36;13.20;97.00
21895;DHT22;11112;51.270;7.224;2022-11-04T01:38:03;13.20;97.10
21895;DHT22;11112;51.270;7.224;2022-11-04T01:40:35;13.10;97.20
21895;DHT22;11112;51.270;7.224;2022-11-04T01:43:02;13.10;97.20
21895;DHT22;11112;51.270;7.224;2022-11-04T01:45:31;13.10;97.30
21895;DHT22;11112;51.270;7.224;2022-11-04T01:48:00;13.10;97.40
21895;DHT22;11112;51.270;7.224;2022-11-04T01:50:32;13.10;97.30
21895;DHT22;11112;51.270;7.224;2022-11-04T01:53:04;13.10;97.40
21895;DHT22;11112;51.270;7.224;2022-11-04T01:55:34;13.20;97.40
21895;DHT22;11112;51.270;7.224;2022-11-04T01:58:06;13.20;97.30
21895;DHT22;11112;51.270;7.224;2022-11-04T02:00:37;13.20;97.30
21895;DHT22;11112;51.270;7.224;2022-11-04T02:03:08;13.20;97.30
21895;DHT22;11112;51.270;7.224;2022-11-04T02:05:38;13.20;97.20
21895;DHT22;11112;51.270;7.224;2022-11-04T02:08:07;13.20;97.30
21895;DHT22;11112;51.270;7.224;2022-11-04T02:10:35;13.20;97.30
21895;DHT22;11112;51.270;7.224;2022-11-04T02:13:03;13.20;97.30
21895;DHT22;11112;51.270;7.224;2022-11-04T02:15:37;13.20;97.40
21895;DHT22;11112;51.270;7.224;2022-11-04T02:18:27;13.20;97.40
21895;DHT22;11112;51.270;7.224;2022-11-04T02:21:26;13.20;97.40
21895;DHT22;11112;51.270;7.224;2022-11-04T02:24:19;13.20;97.20
21895;DHT22;11112;51.270;7.224;2022-11-04T02:27:15;13.20;97.20
21895;DHT22;11112;51.270;7.224;2022-11-04T02:30:04;13.20;97.20
21895;DHT22;11112;51.270;7.224;2022-11-04T02:32:41;13.20;97.10
21895;DHT22;11112;51.270;7.224;2022-11-04T02:35:22;13.20;97.10
21895;DHT22;11112;51.270;7.224;2022-11-04T02:37:56;13.10;97.10
21895;DHT22;11112;51.270;7.224;2022-11-04T02:40:38;13.20;97.20
21895;DHT22;11112;51.270;7.224;2022-11-04T02:43:14;13.20;97.00
21895;DHT22;11112;51.270;7.224;2022-11-04T02:45:50;13.20;97.00
21895;DHT22;11112;51.270;7.224;2022-11-04T02:48:28;13.20;96.90
21895;DHT22;11112;51.270;7.224;2022-11-04T02:51:04;13.10;96.90
21895;DHT22;11112;51.270;7.224;2022-11-04T02:53:37;13.10;97.00
21895;DHT22;11112;51.270;7.224;2022-11-04T02:56:09;13.10;97.00
21895;DHT22;11112;51.270;7.224;2022-11-04T02:58:41;13.10;97.00
21895;DHT22;11112;51.270;7.224;2022-11-04T03:01:15;13.10;97.10
21895;DHT22;11112;51.270;7.224;2022-11-04T03:03:48;13.10;96.90
21895;DHT22;11112;51.270;7.224;2022-11-04T03:06:21;13.10;96.90
21895;DHT22;11112;51.270;7.224;2022-11-04T03:08:51;13.00;96.80
21895;DHT22;11112;51.270;7.224;2022-11-04T03:11:21;13.00;96.80
21895;DHT22;11112;51.270;7.224;2022-11-04T03:13:52;13.00;96.70
21895;DHT22;11112;51.270;7.224;2022-11-04T03:16:26;13.00;96.60
21895;DHT22;11112;51.270;7.224;2022-11-04T03:18:59;13.00;97.00
21895;DHT22;11112;51.270;7.224;2022-11-04T03:21:31;13.00;96.60
21895;DHT22;11112;51.270;7.224;2022-11-04T03:24:00;13.00;96.50
21895;DHT22;11112;51.270;7.224;2022-11-04T03:26:32;13.10;96.50
21895;DHT22;11112;51.270;7.224;2022-11-04T03:29:16;13.00;96.30
21895;DHT22;11112;51.270;7.224;2022-11-04T03:31:54;13.00;96.30
21895;DHT22;11112;51.270;7.224;2022-11-04T03:34:28;13.00;96.20
21895;DHT22;11112;51.270;7.224;2022-11-04T03:36:56;12.90;96.20
21895;DHT22;11112;51.270;7.224;2022-11-04T03:39:24;13.00;96.20
21895;DHT22;11112;51.270;7.224;2022-11-04T03:41:55;13.00;96.20
21895;DHT22;11112;51.270;7.224;2022-11-04T03:44:23;13.00;96.10
21895;DHT22;11112;51.270;7.224;2022-11-04T03:46:52;12.90;96.00
21895;DHT22;11112;51.270;7.224;2022-11-04T03:49:20;12.90;96.00
21895;DHT22;11112;51.270;7.224;2022-11-04T03:51:48;12.90;96.00
21895;DHT22;11112;51.270;7.224;2022-11-04T03:54:16;12.90;95.90
21895;DHT22;11112;51.270;7.224;2022-11-04T03:57:01;12.90;95.80
21895;DHT22;11112;51.270;7.224;2022-11-04T03:59:41;12.80;95.80
21895;DHT22;11112;51.270;7.224;2022-11-04T04:02:20;12.80;95.80
21895;DHT22;11112;51.270;7.224;2022-11-04T04:04:55;12.80;95.70
21895;DHT22;11112;51.270;7.224;2022-11-04T04:07:32;12.80;95.60
21895;DHT22;11112;51.270;7.224;2022-11-04T04:10:06;12.80;95.50
21895;DHT22;11112;51.270;7.224;2022-11-04T04:12:53;12.80;95.60
21895;DHT22;11112;51.270;7.224;2022-11-04T04:15:26;12.80;95.50
21895;DHT22;11112;51.270;7.224;2022-11-04T04:18:02;12.80;95.50
21895;DHT22;11112;51.270;7.224;2022-11-04T04:20:35;12.80;95.40
21895;DHT22;11112;51.270;7.224;2022-11-04T04:23:06;12.80;95.30
21895;DHT22;11112;51.270;7.224;2022-11-04T04:25:50;12.70;95.10
21895;DHT22;11112;51.270;7.224;2022-11-04T04:28:36;12.70;95.30
21895;DHT22;11112;51.270;7.224;2022-11-04T04:31:04;12.70;95.30
21895;DHT22;11112;51.270;7.224;2022-11-04T04:33:34;12.70;95.40
21895;DHT22;11112;51.270;7.224;2022-11-04T04:36:06;12.70;95.20
21895;DHT22;11112;51.270;7.224;2022-11-04T04:38:35;12.70;95.10
21895;DHT22;11112;51.270;7.224;2022-11-04T04:41:29;12.70;95.20
21895;DHT22;11112;51.270;7.224;2022-11-04T04:44:25;12.70;95.30
21895;DHT22;11112;51.270;7.224;2022-11-04T04:47:14;12.70;95.10
21895;DHT22;11112;51.270;7.224;2022-11-04T04:49:53;12.70;95.00
21895;DHT22;11112;51.270;7.224;2022-11-04T04:52:22;12.60;95.10
21895;DHT22;11112;51.270;7.224;2022-11-04T04:54:50;12.60;95.20
21895;DHT22;11112;51.270;7.224;2022-11-04T04:57:18;12.60;95.20
21895;DHT22;11112;51.270;7.224;2022-11-04T04:59:45;12.60;95.30
21895;DHT22;11112;51.270;7.224;2022-11-04T05:02:12;12.60;95.30
21895;DHT22;11112;51.270;7.224;2022-11-04T05:04:39;12.60;95.30
21895;DHT22;11112;51.270;7.224;2022-11-04T05:07:08;12.60;95.70
21895;DHT22;11112;51.270;7.224;2022-11-04T05:09:35;12.60;95.80
21895;DHT22;11112;51.270;7.224;2022-11-04T05:12:05;12.60;95.70
21895;DHT22;11112;51.270;7.224;2022-11-04T05:14:34;12.60;95.20
21895;DHT22;11112;51.270;7.224;2022-11-04T05:17:01;12.60;95.10
21895;DHT22;11112;51.270;7.224;2022-11-04T05:19:29;12.60;95.50
21895;DHT22;11112;51.270;7.224;2022-11-04T05:21:56;12.50;95.10
21895;DHT22;11112;51.270;7.224;2022-11-04T05:24:25;12.50;95.20
21895;DHT22;11112;51.270;7.224;2022-11-04T05:26:52;12.50;95.20
21895;DHT22;11112;51.270;7.224;2022-11-04T05:29:19;12.50;95.10
21895;DHT22;11112;51.270;7.224;2022-11-04T05:31:48;12.50;95.10
21895;DHT22;11112;51.270;7.224;2022-11-04T05:34:15;12.50;95.10
21895;DHT22;11112;51.270;7.224;2022-11-04T05:36:42;12.40;95.10
21895;DHT22;11112;51.270;7.224;2022-11-04T05:39:12;12.40;95.20
21895;DHT22;11112;51.270;7.224;2022-11-04T05:41:41;12.50;95.20
21895;DHT22;11112;51.270;7.224;2022-11-04T05:44:08;12.40;95.10
21895;DHT22;11112;51.270;7.224;2022-11-04T05:46:36;12.50;95.10
21895;DHT22;11112;51.270;7.224;2022-11-04T05:49:03;12.40;95.10
21895;DHT22;11112;51.270;7.224;2022-11-04T05:51:30;12.40;95.10
21895;DHT22;11112;51.270;7.224;2022-11-04T05:53:57;12.40;95.10
21895;DHT22;11112;51.270;7.224;2022-11-04T05:56:24;12.40;95.10
21895;DHT22;11112;51.270;7.224;2022-11-04T05:58:53;12.40;95.20
21895;DHT22;11112;51.270;7.224;2022-11-04T06:01:27;12.30;95.00
21895;DHT22;11112;51.270;7.224;2022-11-04T06:03:56;12.30;95.10
21895;DHT22;11112;51.270;7.224;2022-11-04T06:06:26;12.30;95.20
21895;DHT22;11112;51.270;7.224;2022-11-04T06:08:54;12.40;95.20
21895;DHT22;11112;51.270;7.224;2022-11-04T06:11:23;12.40;95.20
21895;DHT22;11112;51.270;7.224;2022-11-04T06:13:54;12.40;95.10
21895;DHT22;11112;51.270;7.224;2022-11-04T06:16:21;12.40;95.00
21895;DHT22;11112;51.270;7.224;2022-11-04T06:18:49;12.30;95.10
21895;DHT22;11112;51.270;7.224;2022-11-04T06:21:25;12.30;95.10
21895;DHT22;11112;51.270;7.224;2022-11-04T06:23:54;12.30;95.20
21895;DHT22;11112;51.270;7.224;2022-11-04T06:26:27;12.40;95.20
21895;DHT22;11112;51.270;7.224;2022-11-04T06:28:57;12.40;95.30
21895;DHT22;11112;51.270;7.224;2022-11-04T06:31:24;12.40;95.10
21895;DHT22;11112;51.270;7.224;2022-11-04T06:33:52;12.40;95.20
21895;DHT22;11112;51.270;7.224;2022-11-04T06:36:20;12.40;95.30
21895;DHT22;11112;51.270;7.224;2022-11-04T06:38:49;12.40;95.40
21895;DHT22;11112;51.270;7.224;2022-11-04T06:41:17;12.40;95.30
21895;DHT22;11112;51.270;7.224;2022-11-04T06:43:44;12.40;95.20
21895;DHT22;11112;51.270;7.224;2022-11-04T06:46:26;12.40;95.10
21895;DHT22;11112;51.270;7.224;2022-11-04T06:48:55;12.40;95.20
21895;DHT22;11112;51.270;7.224;2022-11-04T06:51:22;12.30;95.40
21895;DHT22;11112;51.270;7.224;2022-11-04T06:53:50;12.40;95.50
21895;DHT22;11112;51.270;7.224;2022-11-04T06:56:18;12.30;95.40
21895;DHT22;11112;51.270;7.224;2022-11-04T06:58:47;12.40;95.50
21895;DHT22;11112;51.270;7.224;2022-11-04T07:01:15;12.40;95.60
21895;DHT22;11112;51.270;7.224;2022-11-04T07:03:48;12.40;95.50
21895;DHT22;11112;51.270;7.224;2022-11-04T07:06:16;12.30;95.40
21895;DHT22;11112;51.270;7.224;2022-11-04T07:08:46;12.30;95.40
21895;DHT22;11112;51.270;7.224;2022-11-04T07:11:14;12.20;95.40
21895;DHT22;11112;51.270;7.224;2022-11-04T07:13:43;12.20;95.50
21895;DHT22;11112;51.270;7.224;2022-11-04T07:16:11;12.20;95.60
21895;DHT22;11112;51.270;7.224;2022-11-04T07:18:38;12.20;95.60
21895;DHT22;11112;51.270;7.224;2022-11-04T07:21:07;12.20;95.50
21895;DHT22;11112;51.270;7.224;2022-11-04T07:23:36;12.20;95.50
21895;DHT22;11112;51.270;7.224;2022-11-04T07:26:06;12.30;95.60
21895;DHT22;11112;51.270;7.224;2022-11-04T07:28:35;12.30;95.70
21895;DHT22;11112;51.270;7.224;2022-11-04T07:31:05;12.30;95.50
21895;DHT22;11112;51.270;7.224;2022-11-04T07:33:33;12.30;95.60
21895;DHT22;11112;51.270;7.224;2022-11-04T07:36:03;12.30;95.50
21895;DHT22;11112;51.270;7.224;2022-11-04T07:38:32;12.30;95.60
21895;DHT22;11112;51.270;7.224;2022-11-04T07:41:00;12.20;95.60
21895;DHT22;11112;51.270;7.224;2022-11-04T07:43:28;12.20;95.70
21895;DHT22;11112;51.270;7.224;2022-11-04T07:45:59;12.30;95.70
21895;DHT22;11112;51.270;7.224;2022-11-04T07:48:27;12.30;96.00
21895;DHT22;11112;51.270;7.224;2022-11-04T07:50:57;12.20;95.70
21895;DHT22;11112;51.270;7.224;2022-11-04T07:53:29;12.20;95.70
21895;DHT22;11112;51.270;7.224;2022-11-04T07:56:02;12.10;95.80
21895;DHT22;11112;51.270;7.224;2022-11-04T07:58:31;12.10;96.00
21895;DHT22;11112;51.270;7.224;2022-11-04T08:01:00;12.20;96.00
21895;DHT22;11112;51.270;7.224;2022-11-04T08:03:29;12.30;95.90
21895;DHT22;11112;51.270;7.224;2022-11-04T08:05:59;12.30;96.00
21895;DHT22;11112;51.270;7.224;2022-11-04T08:08:28;12.40;95.90
21895;DHT22;11112;51.270;7.224;2022-11-04T08:10:59;12.40;95.90
21895;DHT22;11112;51.270;7.224;2022-11-04T08:13:28;12.40;96.00
21895;DHT22;11112;51.270;7.224;2022-11-04T08:15:57;12.40;96.00
21895;DHT22;11112;51.270;7.224;2022-11-04T08:18:27;12.40;96.10
21895;DHT22;11112;51.270;7.224;2022-11-04T08:20:54;12.40;96.10
21895;DHT22;11112;51.270;7.224;2022-11-04T08:23:21;12.30;96.20
21895;DHT22;11112;51.270;7.224;2022-11-04T08:25:49;12.30;96.40
21895;DHT22;11112;51.270;7.224;2022-11-04T08:28:18;12.30;96.50
21895;DHT22;11112;51.270;7.224;2022-11-04T08:30:53;12.30;96.50
21895;DHT22;11112;51.270;7.224;2022-11-04T08:33:21;12.30;96.60
21895;DHT22;11112;51.270;7.224;2022-11-04T08:35:51;12.30;96.70
21895;DHT22;11112;51.270;7.224;2022-11-04T08:38:20;12.40;96.90
21895;DHT22;11112;51.270;7.224;2022-11-04T08:40:48;12.40;97.00
21895;DHT22;11112;51.270;7.224;2022-11-04T08:43:19;12.40;97.20
21895;DHT22;11112;51.270;7.224;2022-11-04T08:45:48;12.40;97.20
21895;DHT22;11112;51.270;7.224;2022-11-04T08:48:16;12.50;97.30
21895;DHT22;11112;51.270;7.224;2022-11-04T08:50:47;12.50;97.20
21895;DHT22;11112;51.270;7.224;2022-11-04T08:53:16;12.50;97.30
21895;DHT22;11112;51.270;7.224;2022-11-04T08:55:45;12.50;97.40
21895;DHT22;11112;51.270;7.224;2022-11-04T08:58:13;12.50;97.20
21895;DHT22;11112;51.270;7.224;2022-11-04T09:00:45;12.50;97.10
21895;DHT22;11112;51.270;7.224;2022-11-04T09:03:14;12.50;97.20
21895;DHT22;11112;51.270;7.224;2022-11-04T09:05:41;12.50;97.10
21895;DHT22;11112;51.270;7.224;2022-11-04T09:08:14;12.50;97.20
21895;DHT22;11112;51.270;7.224;2022-11-04T09:10:44;12.50;97.20
21895;DHT22;11112;51.270;7.224;2022-11-04T09:13:13;12.50;97.10
21895;DHT22;11112;51.270;7.224;2022-11-04T09:15:42;12.50;97.30
21895;DHT22;11112;51.270;7.224;2022-11-04T09:18:10;12.40;97.40
21895;DHT22;11112;51.270;7.224;2022-11-04T09:20:38;12.50;97.60
21895;DHT22;11112;51.270;7.224;2022-11-04T09:23:07;12.50;97.50
21895;DHT22;11112;51.270;7.224;2022-11-04T09:25:35;12.60;97.60
21895;DHT22;11112;51.270;7.224;2022-11-04T09:28:03;12.60;97.60
21895;DHT22;11112;51.270;7.224;2022-11-04T09:30:31;12.60;97.60
21895;DHT22;11112;51.270;7.224;2022-11-04T09:33:00;12.70;97.80
21895;DHT22;11112;51.270;7.224;2022-11-04T09:35:29;12.70;97.80
21895;DHT22;11112;51.270;7.224;2022-11-04T09:37:58;12.70;97.90
21895;DHT22;11112;51.270;7.224;2022-11-04T09:40:27;12.60;98.00
21895;DHT22;11112;51.270;7.224;2022-11-04T09:43:07;12.60;97.90
21895;DHT22;11112;51.270;7.224;2022-11-04T09:45:50;12.70;97.90
21895;DHT22;11112;51.270;7.224;2022-11-04T09:48:23;12.70;97.90
21895;DHT22;11112;51.270;7.224;2022-11-04T09:50:56;12.70;97.70
21895;DHT22;11112;51.270;7.224;2022-11-04T09:53:29;12.80;97.60
21895;DHT22;11112;51.270;7.224;2022-11-04T09:56:15;12.80;97.70
21895;DHT22;11112;51.270;7.224;2022-11-04T09:58:44;12.90;97.50
21895;DHT22;11112;51.270;7.224;2022-11-04T10:01:20;12.90;97.60
21895;DHT22;11112;51.270;7.224;2022-11-04T10:07:02;12.90;97.10
21895;DHT22;11112;51.270;7.224;2022-11-04T10:09:48;12.90;97.10
21895;DHT22;11112;51.270;7.224;2022-11-04T10:12:35;13.00;97.40
21895;DHT22;11112;51.270;7.224;2022-11-04T10:15:19;13.10;97.20
21895;DHT22;11112;51.270;7.224;2022-11-04T10:18:10;13.10;97.00
21895;DHT22;11112;51.270;7.224;2022-11-04T10:20:51;13.10;97.00
21895;DHT22;11112;51.270;7.224;2022-11-04T10:23:28;13.10;96.70
21895;DHT22;11112;51.270;7.224;2022-11-04T10:26:04;13.20;96.70
21895;DHT22;11112;51.270;7.224;2022-11-04T10:28:41;13.20;96.80
21895;DHT22;11112;51.270;7.224;2022-11-04T10:31:14;13.20;97.00
21895;DHT22;11112;51.270;7.224;2022-11-04T10:33:46;13.20;96.80
21895;DHT22;11112;51.270;7.224;2022-11-04T10:36:16;13.20;96.70
21895;DHT22;11112;51.270;7.224;2022-11-04T10:38:47;13.30;97.00
21895;DHT22;11112;51.270;7.224;2022-11-04T10:41:36;13.30;97.00
21895;DHT22;11112;51.270;7.224;2022-11-04T10:44:06;13.40;97.20
21895;DHT22;11112;51.270;7.224;2022-11-04T10:46:53;13.40;97.10
21895;DHT22;11112;51.270;7.224;2022-11-04T10:49:43;13.40;97.10
21895;DHT22;11112;51.270;7.224;2022-11-04T10:52:16;13.40;97.10
21895;DHT22;11112;51.270;7.224;2022-11-04T10:54:47;13.40;97.30
21895;DHT22;11112;51.270;7.224;2022-11-04T10:57:17;13.40;96.10
21895;DHT22;11112;51.270;7.224;2022-11-04T10:59:52;13.30;96.30
21895;DHT22;11112;51.270;7.224;2022-11-04T11:02:42;13.40;96.20
21895;DHT22;11112;51.270;7.224;2022-11-04T11:05:23;13.40;96.20
21895;DHT22;11112;51.270;7.224;2022-11-04T11:07:52;13.30;95.90
21895;DHT22;11112;51.270;7.224;2022-11-04T11:10:24;13.40;95.90
21895;DHT22;11112;51.270;7.224;2022-11-04T11:12:57;13.40;95.80
21895;DHT22;11112;51.270;7.224;2022-11-04T11:15:30;13.40;95.70
21895;DHT22;11112;51.270;7.224;2022-11-04T11:18:12;13.40;95.60
21895;DHT22;11112;51.270;7.224;2022-11-04T11:20:41;13.40;95.80
21895;DHT22;11112;51.270;7.224;2022-11-04T11:23:34;13.40;95.80
21895;DHT22;11112;51.270;7.224;2022-11-04T11:26:06;13.40;95.70
21895;DHT22;11112;51.270;7.224;2022-11-04T11:28:34;13.50;95.60
21895;DHT22;11112;51.270;7.224;2022-11-04T11:31:07;13.50;95.50
21895;DHT22;11112;51.270;7.224;2022-11-04T11:33:45;13.50;95.80
21895;DHT22;11112;51.270;7.224;2022-11-04T11:36:18;13.50;95.60
21895;DHT22;11112;51.270;7.224;2022-11-04T11:38:56;13.50;95.80
21895;DHT22;11112;51.270;7.224;2022-11-04T11:41:31;13.50;95.80
21895;DHT22;11112;51.270;7.224;2022-11-04T11:44:06;13.50;95.80
21895;DHT22;11112;51.270;7.224;2022-11-04T11:46:49;13.50;95.90
21895;DHT22;11112;51.270;7.224;2022-11-04T11:49:24;13.50;95.90
21895;DHT22;11112;51.270;7.224;2022-11-04T11:51:53;13.50;95.70
21895;DHT22;11112;51.270;7.224;2022-11-04T11:54:26;13.50;95.50
21895;DHT22;11112;51.270;7.224;2022-11-04T11:57:02;13.50;95.30
21895;DHT22;11112;51.270;7.224;2022-11-04T11:59:43;13.50;95.40
21895;DHT22;11112;51.270;7.224;2022-11-04T12:02:24;13.50;95.60
21895;DHT22;11112;51.270;7.224;2022-11-04T12:04:54;13.50;95.90
21895;DHT22;11112;51.270;7.224;2022-11-04T12:07:28;13.50;96.10
21895;DHT22;11112;51.270;7.224;2022-11-04T12:10:07;13.50;96.30
21895;DHT22;11112;51.270;7.224;2022-11-04T12:12:56;13.50;96.60
21895;DHT22;11112;51.270;7.224;2022-11-04T12:15:43;13.50;96.70
21895;DHT22;11112;51.270;7.224;2022-11-04T12:21:25;13.50;96.50
21895;DHT22;11112;51.270;7.224;2022-11-04T12:23:58;13.50;96.80
21895;DHT22;11112;51.270;7.224;2022-11-04T12:26:35;13.50;96.80
21895;DHT22;11112;51.270;7.224;2022-11-04T12:29:26;13.50;96.80
21895;DHT22;11112;51.270;7.224;2022-11-04T12:32:04;13.50;96.60
21895;DHT22;11112;51.270;7.224;2022-11-04T12:34:45;13.50;96.60
21895;DHT22;11112;51.270;7.224;2022-11-04T12:37:26;13.50;96.70
21895;DHT22;11112;51.270;7.224;2022-11-04T12:40:11;13.50;96.70
21895;DHT22;11112;51.270;7.224;2022-11-04T12:42:59;13.50;96.70
21895;DHT22;11112;51.270;7.224;2022-11-04T12:45:42;13.60;96.90
21895;DHT22;11112;51.270;7.224;2022-11-04T12:48:27;13.50;96.70
21895;DHT22;11112;51.270;7.224;2022-11-04T12:51:07;13.60;96.80
21895;DHT22;11112;51.270;7.224;2022-11-04T12:54:01;13.50;96.80
21895;DHT22;11112;51.270;7.224;2022-11-04T12:56:49;13.60;96.90
21895;DHT22;11112;51.270;7.224;2022-11-04T12:59:37;13.60;97.10
21895;DHT22;11112;51.270;7.224;2022-11-04T13:02:20;13.60;96.70
21895;DHT22;11112;51.270;7.224;2022-11-04T13:04:54;13.60;96.50
21895;DHT22;11112;51.270;7.224;2022-11-04T13:07:29;13.70;96.70
21895;DHT22;11112;51.270;7.224;2022-11-04T13:10:00;13.60;96.30
21895;DHT22;11112;51.270;7.224;2022-11-04T13:12:35;13.70;96.30
21895;DHT22;11112;51.270;7.224;2022-11-04T13:15:13;13.60;96.10
21895;DHT22;11112;51.270;7.224;2022-11-04T13:17:45;13.70;96.20
21895;DHT22;11112;51.270;7.224;2022-11-04T13:20:19;13.70;96.30
21895;DHT22;11112;51.270;7.224;2022-11-04T13:22:52;13.70;96.40
21895;DHT22;11112;51.270;7.224;2022-11-04T13:25:26;13.70;96.10
21895;DHT22;11112;51.270;7.224;2022-11-04T13:27:56;13.60;96.00
21895;DHT22;11112;51.270;7.224;2022-11-04T13:30:30;13.60;96.00
21895;DHT22;11112;51.270;7.224;2022-11-04T13:33:10;13.60;95.80
21895;DHT22;11112;51.270;7.224;2022-11-04T13:35:48;13.60;95.90
21895;DHT22;11112;51.270;7.224;2022-11-04T13:38:24;13.60;95.70
21895;DHT22;11112;51.270;7.224;2022-11-04T13:40:58;13.60;95.90
21895;DHT22;11112;51.270;7.224;2022-11-04T13:43:33;13.60;95.90
21895;DHT22;11112;51.270;7.224;2022-11-04T13:46:14;13.70;95.80
21895;DHT22;11112;51.270;7.224;2022-11-04T13:48:57;13.70;95.60
21895;DHT22;11112;51.270;7.224;2022-11-04T13:51:35;13.70;95.50
21895;DHT22;11112;51.270;7.224;2022-11-04T13:54:04;13.70;95.60
21895;DHT22;11112;51.270;7.224;2022-11-04T13:56:34;13.70;95.70
21895;DHT22;11112;51.270;7.224;2022-11-04T13:59:07;13.70;95.80
21895;DHT22;11112;51.270;7.224;2022-11-04T14:01:45;13.70;95.70
21895;DHT22;11112;51.270;7.224;2022-11-04T14:04:27;13.70;95.50
21895;DHT22;11112;51.270;7.224;2022-11-04T14:06:57;13.70;95.70
21895;DHT22;11112;51.270;7.224;2022-11-04T14:09:35;13.70;95.40
21895;DHT22;11112;51.270;7.224;2022-11-04T14:15:15;13.70;95.80
21895;DHT22;11112;51.270;7.224;2022-11-04T14:17:59;13.70;96.00
21895;DHT22;11112;51.270;7.224;2022-11-04T14:20:31;13.70;96.00
21895;DHT22;11112;51.270;7.224;2022-11-04T14:23:03;13.80;95.90
21895;DHT22;11112;51.270;7.224;2022-11-04T14:25:33;13.70;95.90
21895;DHT22;11112;51.270;7.224;2022-11-04T14:28:24;13.70;96.00
21895;DHT22;11112;51.270;7.224;2022-11-04T14:30:54;13.70;96.00
21895;DHT22;11112;51.270;7.224;2022-11-04T14:33:33;13.70;96.10
21895;DHT22;11112;51.270;7.224;2022-11-04T14:36:26;13.70;96.10
21895;DHT22;11112;51.270;7.224;2022-11-04T14:38:58;13.70;96.30
21895;DHT22;11112;51.270;7.224;2022-11-04T14:41:53;13.70;96.30
21895;DHT22;11112;51.270;7.224;2022-11-04T14:44:30;13.80;96.30
21895;DHT22;11112;51.270;7.224;2022-11-04T14:47:01;13.80;96.40
21895;DHT22;11112;51.270;7.224;2022-11-04T14:49:43;13.70;96.30
21895;DHT22;11112;51.270;7.224;2022-11-04T14:52:20;13.70;96.20
21895;DHT22;11112;51.270;7.224;2022-11-04T14:54:51;13.70;96.10
21895;DHT22;11112;51.270;7.224;2022-11-04T14:57:22;13.70;96.20
21895;DHT22;11112;51.270;7.224;2022-11-04T14:59:50;13.70;96.30
21895;DHT22;11112;51.270;7.224;2022-11-04T15:02:20;13.70;96.40
21895;DHT22;11112;51.270;7.224;2022-11-04T15:04:52;13.70;96.20
21895;DHT22;11112;51.270;7.224;2022-11-04T15:07:25;13.70;96.20
21895;DHT22;11112;51.270;7.224;2022-11-04T15:09:59;13.70;96.30
21895;DHT22;11112;51.270;7.224;2022-11-04T15:12:27;13.70;96.10
21895;DHT22;11112;51.270;7.224;2022-11-04T15:15:33;13.70;96.30
21895;DHT22;11112;51.270;7.224;2022-11-04T15:18:05;13.70;96.10
21895;DHT22;11112;51.270;7.224;2022-11-04T15:20:37;13.70;96.20
21895;DHT22;11112;51.270;7.224;2022-11-04T15:23:12;13.70;96.20
21895;DHT22;11112;51.270;7.224;2022-11-04T15:25:47;13.70;96.20
21895;DHT22;11112;51.270;7.224;2022-11-04T15:28:18;13.70;96.20
21895;DHT22;11112;51.270;7.224;2022-11-04T15:30:57;13.70;96.20
21895;DHT22;11112;51.270;7.224;2022-11-04T15:33:25;13.70;96.30
21895;DHT22;11112;51.270;7.224;2022-11-04T15:35:54;13.70;96.00
21895;DHT22;11112;51.270;7.224;2022-11-04T15:38:25;13.70;95.90
21895;DHT22;11112;51.270;7.224;2022-11-04T15:40:53;13.70;95.70
21895;DHT22;11112;51.270;7.224;2022-11-04T15:43:22;13.70;95.70
21895;DHT22;11112;51.270;7.224;2022-11-04T15:45:50;13.70;95.80
21895;DHT22;11112;51.270;7.224;2022-11-04T15:48:35;13.70;95.80
21895;DHT22;11112;51.270;7.224;2022-11-04T15:51:16;13.70;95.80
21895;DHT22;11112;51.270;7.224;2022-11-04T15:53:52;13.70;95.80
21895;DHT22;11112;51.270;7.224;2022-11-04T15:56:22;13.70;96.00
21895;DHT22;11112;51.270;7.224;2022-11-04T15:58:51;13.70;96.20
21895;DHT22;11112;51.270;7.224;2022-11-04T16:01:19;13.70;96.10
21895;DHT22;11112;51.270;7.224;2022-11-04T16:03:49;13.70;96.30
21895;DHT22;11112;51.270;7.224;2022-11-04T16:06:30;13.70;96.50
21895;DHT22;11112;51.270;7.224;2022-11-04T16:09:04;13.70;96.50
21895;DHT22;11112;51.270;7.224;2022-11-04T16:11:34;13.60;96.70
21895;DHT22;11112;51.270;7.224;2022-11-04T16:14:17;13.60;96.80
21895;DHT22;11112;51.270;7.224;2022-11-04T16:16:54;13.60;96.90
21895;DHT22;11112;51.270;7.224;2022-11-04T16:19:24;13.70;97.10